createdAt,value
2022-08-19T00:01:53.381Z,5.57
2022-08-19T00:04:24.223Z,5.30
2022-08-19T00:06:51.621Z,5.13
2022-08-19T00:09:19.800Z,4.77
2022-08-19T00:11:46.906Z,5.10
2022-08-19T00:14:16.480Z,5.53
2022-08-19T00:16:45.701Z,5.17
2022-08-19T00:19:12.688Z,4.97
2022-08-19T00:21:40.409Z,5.27
2022-08-19T00:24:09.040Z,5.07
2022-08-19T00:26:36.819Z,4.80
2022-08-19T00:29:05.458Z,5.40
2022-08-19T00:31:32.379Z,5.07
2022-08-19T00:33:59.252Z,5.10
2022-08-19T00:36:26.403Z,5.27
2022-08-19T00:38:53.275Z,5.40
2022-08-19T00:41:22.303Z,5.03
2022-08-19T00:44:00.664Z,5.00
2022-08-19T00:46:27.969Z,4.90
2022-08-19T00:48:55.586Z,5.43
2022-08-19T00:51:23.082Z,4.90
2022-08-19T00:53:49.836Z,4.83
2022-08-19T00:56:17.397Z,5.40
2022-08-19T00:58:44.497Z,5.63
2022-08-19T01:01:11.953Z,5.47
2022-08-19T01:03:57.061Z,4.30
2022-08-19T01:06:26.573Z,6.03
2022-08-19T01:08:54.507Z,5.67
2022-08-19T01:11:21.245Z,4.50
2022-08-19T01:13:49.938Z,5.00
2022-08-19T01:16:19.581Z,5.20
2022-08-19T01:18:46.177Z,5.00
2022-08-19T01:21:32.059Z,5.30
2022-08-19T01:23:59.300Z,4.77
2022-08-19T01:26:27.681Z,4.97
2022-08-19T01:28:59.599Z,5.03
2022-08-19T01:31:32.551Z,5.20
2022-08-19T01:34:01.646Z,4.60
2022-08-19T01:36:39.398Z,4.97
2022-08-19T01:39:14.036Z,4.93
2022-08-19T01:41:40.945Z,5.30
2022-08-19T01:44:18.664Z,5.30
2022-08-19T01:46:48.077Z,5.10
2022-08-19T01:49:15.532Z,5.10
2022-08-19T01:51:42.166Z,4.93
2022-08-19T01:54:11.160Z,5.17
2022-08-19T01:56:37.775Z,5.20
2022-08-19T01:59:12.521Z,5.13
2022-08-19T02:01:39.170Z,4.50
2022-08-19T02:04:06.641Z,4.90
2022-08-19T02:06:34.038Z,4.67
2022-08-19T02:09:00.728Z,5.00
2022-08-19T02:11:32.162Z,5.13
2022-08-19T02:13:59.678Z,5.43
2022-08-19T02:16:26.311Z,5.60
2022-08-19T02:18:52.895Z,5.30
2022-08-19T02:21:22.129Z,5.10
2022-08-19T02:23:49.017Z,5.03
2022-08-19T02:26:16.075Z,5.73
2022-08-19T02:28:43.456Z,5.37
2022-08-19T02:31:13.080Z,4.90
2022-08-19T02:33:40.044Z,5.13
2022-08-19T02:36:08.036Z,5.00
2022-08-19T02:38:35.593Z,4.57
2022-08-19T02:41:05.664Z,4.27
2022-08-19T02:43:33.788Z,5.17
2022-08-19T02:46:02.233Z,5.20
2022-08-19T02:48:28.900Z,4.53
2022-08-19T02:50:58.224Z,4.60
2022-08-19T02:53:27.677Z,4.87
2022-08-19T02:55:55.038Z,4.93
2022-08-19T02:58:23.990Z,4.50
2022-08-19T03:00:55.029Z,5.20
2022-08-19T03:03:22.266Z,4.47
2022-08-19T03:05:56.577Z,4.23
2022-08-19T03:08:24.977Z,4.83
2022-08-19T03:10:52.973Z,4.77
2022-08-19T03:13:19.623Z,4.87
2022-08-19T03:15:48.702Z,4.73
2022-08-19T03:18:16.049Z,4.30
2022-08-19T03:20:48.016Z,5.77
2022-08-19T03:23:16.566Z,5.30
2022-08-19T03:26:03.183Z,5.17
2022-08-19T03:28:35.127Z,4.90
2022-08-19T03:31:41.927Z,4.57
2022-08-19T03:33:58.442Z,5.13
2022-08-19T03:36:28.530Z,4.80
2022-08-19T03:39:00.068Z,5.67
2022-08-19T03:41:43.299Z,5.57
2022-08-19T03:44:12.675Z,5.00
2022-08-19T03:46:45.268Z,4.83
2022-08-19T03:49:14.227Z,5.03
2022-08-19T03:51:42.945Z,4.70
2022-08-19T03:57:59.237Z,5.27
2022-08-19T04:00:26.897Z,5.03
2022-08-19T04:02:58.220Z,4.90
2022-08-19T04:05:29.474Z,4.90
2022-08-19T04:07:59.635Z,4.57
2022-08-19T04:10:26.303Z,5.17
2022-08-19T04:12:53.034Z,5.03
2022-08-19T04:15:20.453Z,4.37
2022-08-19T04:17:47.458Z,4.63
2022-08-19T04:20:14.138Z,5.03
2022-08-19T04:22:41.160Z,5.17
2022-08-19T04:25:08.059Z,5.10
2022-08-19T04:27:34.975Z,5.37
2022-08-19T04:30:04.196Z,4.57
2022-08-19T04:32:32.860Z,5.50
2022-08-19T04:35:02.730Z,4.80
2022-08-19T04:37:44.363Z,5.43
2022-08-19T04:40:29.661Z,5.93
2022-08-19T04:42:57.259Z,5.03
2022-08-19T04:45:23.916Z,5.20
2022-08-19T04:47:58.439Z,5.30
2022-08-19T04:50:37.243Z,4.70
2022-08-19T04:53:04.077Z,5.37
2022-08-19T04:55:30.652Z,5.60
2022-08-19T04:57:57.260Z,5.97
2022-08-19T05:00:24.516Z,4.90
2022-08-19T05:02:51.114Z,5.60
2022-08-19T05:05:18.429Z,6.00
2022-08-19T05:07:45.112Z,5.83
2022-08-19T05:10:12.462Z,6.20
2022-08-19T05:12:39.131Z,5.87
2022-08-19T05:15:09.265Z,5.90
2022-08-19T05:17:38.762Z,4.77
2022-08-19T05:20:26.008Z,5.13
2022-08-19T05:22:53.276Z,5.80
2022-08-19T05:25:21.679Z,5.67
2022-08-19T05:27:49.240Z,5.20
2022-08-19T05:30:16.318Z,6.50
2022-08-19T05:32:43.817Z,5.87
2022-08-19T05:35:11.429Z,5.30
2022-08-19T05:37:40.979Z,5.90
2022-08-19T05:40:08.205Z,5.83
2022-08-19T05:42:34.781Z,6.23
2022-08-19T05:45:02.104Z,6.20
2022-08-19T05:47:28.699Z,6.60
2022-08-19T05:49:55.557Z,6.53
2022-08-19T05:52:25.801Z,6.60
2022-08-19T05:54:55.507Z,6.03
2022-08-19T05:57:22.376Z,6.30
2022-08-19T05:59:53.082Z,6.07
2022-08-19T06:02:26.150Z,6.20
2022-08-19T06:04:52.810Z,5.80
2022-08-19T06:07:20.255Z,6.70
2022-08-19T06:09:59.653Z,6.53
2022-08-19T06:12:29.563Z,7.00
2022-08-19T06:15:00.857Z,6.40
2022-08-19T06:17:27.990Z,6.63
2022-08-19T06:19:54.601Z,7.47
2022-08-19T06:22:21.281Z,7.00
2022-08-19T06:24:47.984Z,9.83
2022-08-19T06:27:15.096Z,11.30
2022-08-19T06:29:43.261Z,12.53
2022-08-19T06:32:11.118Z,12.83
2022-08-19T06:34:37.955Z,10.07
2022-08-19T06:37:06.534Z,8.97
2022-08-19T06:39:37.160Z,10.53
2022-08-19T06:42:07.854Z,12.30
2022-08-19T06:44:40.575Z,9.10
2022-08-19T06:47:14.721Z,9.80
2022-08-19T06:49:42.519Z,6.70
2022-08-19T06:52:13.818Z,9.20
2022-08-19T06:54:55.944Z,11.10
2022-08-19T06:57:25.172Z,10.13
2022-08-19T06:59:52.176Z,12.60
2022-08-19T07:02:19.946Z,4.57
2022-08-19T07:04:46.817Z,4.67
2022-08-19T07:07:20.993Z,13.27
2022-08-19T07:09:58.215Z,5.10
2022-08-19T07:12:30.811Z,11.93
2022-08-19T07:14:58.758Z,11.83
2022-08-19T07:17:25.598Z,8.17
2022-08-19T07:19:54.320Z,5.90
2022-08-19T07:22:23.358Z,9.97
2022-08-19T07:24:51.742Z,8.63
2022-08-19T07:27:19.740Z,8.40
2022-08-19T07:29:57.365Z,9.43
2022-08-19T07:32:27.223Z,4.80
2022-08-19T07:34:54.127Z,4.73
2022-08-19T07:37:21.247Z,6.13
2022-08-19T07:39:48.481Z,5.20
2022-08-19T07:42:15.431Z,10.43
2022-08-19T07:44:43.059Z,4.40
2022-08-19T07:47:49.616Z,6.17
2022-08-19T07:50:07.802Z,4.20
2022-08-19T07:52:36.760Z,6.13
2022-08-19T07:55:04.844Z,5.30
2022-08-19T07:57:32.099Z,3.80
2022-08-19T07:59:59.128Z,7.13
2022-08-19T08:02:25.712Z,5.17
2022-08-19T08:05:10.969Z,4.80
2022-08-19T08:07:56.367Z,4.90
2022-08-19T08:10:24.263Z,5.80
2022-08-19T08:13:08.931Z,7.50
2022-08-19T08:15:43.189Z,7.30
2022-08-19T08:18:12.031Z,8.20
2022-08-19T08:20:40.072Z,4.60
2022-08-19T08:23:25.719Z,4.83
2022-08-19T08:25:55.544Z,4.03
2022-08-19T08:28:22.784Z,6.93
2022-08-19T08:30:50.749Z,3.50
2022-08-19T08:33:28.372Z,7.70
2022-08-19T08:36:00.053Z,4.97
2022-08-19T08:38:26.623Z,8.43
2022-08-19T08:41:07.656Z,4.57
2022-08-19T08:43:37.922Z,6.77
2022-08-19T08:46:12.357Z,7.30
2022-08-19T08:48:59.700Z,4.40
2022-08-19T08:54:13.818Z,7.30
2022-08-19T08:56:43.834Z,8.20
2022-08-19T08:59:28.945Z,4.70
2022-08-19T09:01:55.624Z,4.80
2022-08-19T09:04:23.391Z,4.13
2022-08-19T09:06:56.999Z,5.10
2022-08-19T09:09:33.249Z,5.70
2022-08-19T09:12:36.239Z,4.70
2022-08-19T09:15:09.768Z,4.63
2022-08-19T09:17:39.200Z,8.20
2022-08-19T09:20:11.878Z,4.60
2022-08-19T09:22:41.715Z,6.00
2022-08-19T09:25:10.724Z,4.30
2022-08-19T09:27:42.756Z,5.80
2022-08-19T09:30:14.119Z,9.10
2022-08-19T09:32:43.123Z,5.63
2022-08-19T09:35:11.101Z,10.47
2022-08-19T09:37:38.841Z,10.20
2022-08-19T09:40:07.976Z,6.67
2022-08-19T09:42:35.889Z,9.70
2022-08-19T09:45:05.134Z,7.87
2022-08-19T09:47:33.375Z,6.53
2022-08-19T09:49:59.965Z,7.90
2022-08-19T09:52:32.805Z,7.90
2022-08-19T09:54:59.966Z,8.33
2022-08-19T09:57:26.603Z,7.17
2022-08-19T09:59:54.375Z,10.03
2022-08-19T10:02:22.216Z,10.03
2022-08-19T10:05:07.839Z,7.83
2022-08-19T10:07:36.374Z,9.10
2022-08-19T10:10:07.027Z,9.70
2022-08-19T10:12:35.015Z,6.80
2022-08-19T10:15:02.392Z,9.77
2022-08-19T10:17:31.511Z,8.33
2022-08-19T10:20:00.491Z,6.57
2022-08-19T10:22:27.249Z,8.23
2022-08-19T10:24:54.775Z,6.67
2022-08-19T10:27:21.781Z,6.70
2022-08-19T10:29:48.881Z,10.50
2022-08-19T10:32:15.992Z,7.10
2022-08-19T10:34:48.770Z,6.77
2022-08-19T10:37:23.835Z,6.43
2022-08-19T10:39:56.142Z,9.40
2022-08-19T10:42:22.885Z,9.63
2022-08-19T10:44:49.496Z,6.80
2022-08-19T10:47:25.691Z,7.30
2022-08-19T10:50:15.397Z,9.57
2022-08-19T10:52:49.445Z,6.63
2022-08-19T10:55:41.969Z,5.90
2022-08-19T10:58:18.128Z,6.67
2022-08-19T11:00:54.047Z,9.30
2022-08-19T11:03:21.097Z,7.53
2022-08-19T11:05:49.874Z,7.70
2022-08-19T11:08:22.926Z,8.93
2022-08-19T11:10:51.853Z,12.10
2022-08-19T11:13:18.482Z,10.70
2022-08-19T11:15:46.725Z,7.40
2022-08-19T11:18:13.697Z,9.90
2022-08-19T11:20:40.373Z,7.93
2022-08-19T11:23:07.353Z,8.83
2022-08-19T11:25:34.227Z,10.73
2022-08-19T11:28:01.259Z,7.83
2022-08-19T11:30:28.753Z,7.87
2022-08-19T11:32:55.415Z,8.87
2022-08-19T11:35:24.121Z,12.10
2022-08-19T11:37:51.190Z,11.70
2022-08-19T11:40:17.937Z,8.70
2022-08-19T11:42:57.551Z,8.77
2022-08-19T11:45:25.882Z,7.77
2022-08-19T11:47:52.894Z,8.20
2022-08-19T11:50:20.307Z,8.90
2022-08-19T11:52:47.709Z,7.07
2022-08-19T11:55:14.981Z,9.10
2022-08-19T11:57:42.096Z,12.50
2022-08-19T12:00:10.552Z,7.70
2022-08-19T12:02:37.579Z,7.83
2022-08-19T12:05:07.910Z,8.17
2022-08-19T12:07:37.067Z,9.90
2022-08-19T12:10:04.104Z,7.40
2022-08-19T12:12:30.948Z,8.77
2022-08-19T12:14:59.100Z,7.13
2022-08-19T12:17:27.596Z,7.97
2022-08-19T12:19:54.793Z,7.87
2022-08-19T12:22:22.199Z,8.40
2022-08-19T12:24:51.073Z,8.80
2022-08-19T12:27:25.474Z,7.67
2022-08-19T12:30:01.284Z,8.17
2022-08-19T12:32:28.110Z,8.50
2022-08-19T12:34:55.285Z,8.97
2022-08-19T12:37:22.244Z,12.00
2022-08-19T12:39:48.917Z,9.07
2022-08-19T12:42:15.724Z,11.40
2022-08-19T12:44:44.188Z,8.60
2022-08-19T12:47:13.039Z,10.90
2022-08-19T12:49:47.121Z,9.50
2022-08-19T12:52:23.144Z,8.70
2022-08-19T12:54:53.959Z,9.10
2022-08-19T12:57:23.163Z,9.30
2022-08-19T12:59:56.778Z,10.10
2022-08-19T13:02:23.465Z,9.30
2022-08-19T13:04:50.044Z,8.30
2022-08-19T13:07:16.606Z,8.90
2022-08-19T13:09:43.450Z,7.67
2022-08-19T13:12:13.773Z,7.40
2022-08-19T13:14:41.907Z,7.10
2022-08-19T13:17:09.362Z,7.70
2022-08-19T13:19:37.867Z,7.80
2022-08-19T13:22:04.712Z,8.10
2022-08-19T13:24:37.600Z,7.20
2022-08-19T13:27:04.759Z,7.30
2022-08-19T13:29:50.036Z,6.00
2022-08-19T13:32:35.881Z,6.40
2022-08-19T13:35:03.465Z,6.20
2022-08-19T13:37:42.431Z,6.10
2022-08-19T13:40:15.275Z,6.43
2022-08-19T13:42:43.064Z,5.37
2022-08-19T13:45:10.131Z,5.10
2022-08-19T13:47:38.517Z,6.43
2022-08-19T13:50:05.759Z,4.87
2022-08-19T13:52:32.470Z,5.60
2022-08-19T13:54:59.495Z,4.80
2022-08-19T13:57:26.139Z,5.20
2022-08-19T13:59:52.767Z,4.90
2022-08-19T14:02:19.988Z,4.33
2022-08-19T14:04:46.548Z,4.80
2022-08-19T14:07:13.859Z,4.20
2022-08-19T14:09:40.554Z,4.50
2022-08-19T14:12:07.581Z,4.90
2022-08-19T14:14:38.032Z,5.00
2022-08-19T14:17:07.689Z,4.60
2022-08-19T14:19:34.462Z,4.30
2022-08-19T14:22:01.075Z,4.70
2022-08-19T14:24:28.378Z,4.67
2022-08-19T14:26:54.963Z,4.43
2022-08-19T14:29:21.929Z,4.60
2022-08-19T14:31:49.370Z,5.07
2022-08-19T14:34:16.107Z,4.43
2022-08-19T14:36:43.500Z,4.57
2022-08-19T14:39:10.500Z,5.00
2022-08-19T14:41:37.257Z,4.37
2022-08-19T14:44:04.040Z,4.80
2022-08-19T14:46:30.639Z,4.57
2022-08-19T14:48:57.706Z,4.40
2022-08-19T14:51:27.633Z,4.90
2022-08-19T14:53:54.673Z,5.30
2022-08-19T14:56:24.371Z,5.13
2022-08-19T14:58:54.259Z,6.30
2022-08-19T15:01:23.610Z,5.50
2022-08-19T15:03:53.828Z,5.77
2022-08-19T15:06:20.798Z,7.20
2022-08-19T15:08:47.439Z,5.83
2022-08-19T15:11:17.380Z,5.50
2022-08-19T15:13:47.365Z,5.00
2022-08-19T15:16:18.360Z,5.30
2022-08-19T15:18:45.982Z,7.20
2022-08-19T15:21:13.981Z,6.77
2022-08-19T15:23:41.699Z,6.67
2022-08-19T15:26:16.098Z,7.63
2022-08-19T15:28:43.282Z,6.97
2022-08-19T15:31:17.200Z,6.10
2022-08-19T15:33:52.419Z,7.53
2022-08-19T15:36:19.106Z,6.77
2022-08-19T15:38:46.811Z,6.40
2022-08-19T15:41:24.091Z,6.43
2022-08-19T15:44:04.313Z,6.30
2022-08-19T15:46:33.186Z,6.50
2022-08-19T15:49:00.954Z,6.43
2022-08-19T15:51:30.333Z,5.77
2022-08-19T15:53:59.770Z,6.00
2022-08-19T15:56:27.456Z,5.83
2022-08-19T15:59:23.521Z,5.83
2022-08-19T16:02:10.458Z,5.83
2022-08-19T16:04:56.782Z,6.03
2022-08-19T16:07:23.587Z,5.47
2022-08-19T16:09:50.164Z,5.00
2022-08-19T16:12:16.867Z,4.90
2022-08-19T16:14:43.443Z,5.10
2022-08-19T16:17:12.499Z,4.93
2022-08-19T16:19:40.375Z,5.03
2022-08-19T16:22:07.101Z,5.10
2022-08-19T16:24:33.725Z,5.00
2022-08-19T16:27:01.449Z,4.70
2022-08-19T16:29:34.693Z,4.80
2022-08-19T16:32:10.069Z,4.50
2022-08-19T16:34:38.089Z,4.47
2022-08-19T16:37:05.243Z,5.37
2022-08-19T16:39:32.088Z,4.90
2022-08-19T16:41:59.304Z,6.30
2022-08-19T16:44:27.333Z,5.90
2022-08-19T16:46:59.070Z,5.90
2022-08-19T16:49:53.620Z,5.33
2022-08-19T16:52:14.931Z,5.93
2022-08-19T16:54:43.614Z,6.07
2022-08-19T16:57:12.091Z,5.10
2022-08-19T16:59:48.274Z,5.80
2022-08-19T17:02:22.078Z,6.37
2022-08-19T17:04:58.795Z,7.27
2022-08-19T17:07:27.801Z,6.67
2022-08-19T17:09:55.287Z,7.13
2022-08-19T17:12:23.232Z,6.40
2022-08-19T17:14:57.590Z,5.90
2022-08-19T17:17:28.784Z,6.67
2022-08-19T17:19:56.024Z,6.30
2022-08-19T17:22:22.666Z,6.23
2022-08-19T17:24:49.368Z,6.60
2022-08-19T17:27:16.080Z,6.20
2022-08-19T17:29:46.740Z,6.13
2022-08-19T17:32:13.785Z,5.40
2022-08-19T17:34:40.401Z,6.47
2022-08-19T17:37:06.981Z,5.77
2022-08-19T17:39:37.135Z,6.80
2022-08-19T17:42:07.238Z,7.17
2022-08-19T17:44:36.448Z,6.00
2022-08-19T17:47:04.136Z,5.70
2022-08-19T17:49:30.832Z,5.67
2022-08-19T17:51:59.939Z,5.63
2022-08-19T17:54:33.241Z,5.77
2022-08-19T17:57:01.148Z,5.93
2022-08-19T17:59:30.085Z,5.80
2022-08-19T18:01:57.469Z,5.90
2022-08-19T18:04:25.746Z,6.00
2022-08-19T18:06:55.053Z,6.90
2022-08-19T18:09:24.880Z,6.40
2022-08-19T18:11:53.450Z,5.80
2022-08-19T18:14:32.070Z,6.20
2022-08-19T18:17:05.269Z,6.97
2022-08-19T18:19:40.817Z,7.40
2022-08-19T18:22:10.272Z,6.90
2022-08-19T18:24:41.753Z,5.93
2022-08-19T18:27:09.806Z,5.83
2022-08-19T18:29:37.895Z,7.37
2022-08-19T18:32:05.059Z,5.83
2022-08-19T18:34:31.646Z,8.10
2022-08-19T18:36:58.248Z,6.93
2022-08-19T18:39:44.209Z,5.70
2022-08-19T18:42:35.047Z,6.57
2022-08-19T18:45:21.028Z,6.27
2022-08-19T18:48:06.379Z,7.93
2022-08-19T18:50:42.027Z,6.30
2022-08-19T18:53:08.652Z,7.00
2022-08-19T18:55:35.256Z,7.10
2022-08-19T18:58:02.648Z,7.90
2022-08-19T19:00:30.028Z,9.80
2022-08-19T19:02:57.676Z,8.23
2022-08-19T19:05:25.577Z,7.03
2022-08-19T19:07:53.632Z,9.57
2022-08-19T19:10:20.313Z,8.80
2022-08-19T19:12:47.673Z,7.60
2022-08-19T19:15:14.469Z,7.47
2022-08-19T19:17:41.917Z,7.43
2022-08-19T19:20:08.787Z,8.60
2022-08-19T19:22:35.463Z,8.37
2022-08-19T19:25:02.410Z,7.60
2022-08-19T19:27:29.069Z,7.23
2022-08-19T19:29:57.807Z,6.77
2022-08-19T19:32:30.797Z,7.50
2022-08-19T19:34:57.490Z,7.97
2022-08-19T19:37:24.061Z,7.10
2022-08-19T19:39:51.170Z,6.97
2022-08-19T19:42:23.651Z,6.53
2022-08-19T19:44:52.333Z,6.87
2022-08-19T19:47:19.630Z,8.20
2022-08-19T19:50:12.741Z,6.97
2022-08-19T19:52:34.094Z,6.23
2022-08-19T19:55:01.334Z,6.20
2022-08-19T19:57:29.220Z,6.30
2022-08-19T19:59:56.159Z,5.80
2022-08-19T20:02:25.012Z,6.37
2022-08-19T20:04:51.766Z,6.57
2022-08-19T20:07:18.429Z,5.73
2022-08-19T20:09:59.416Z,5.53
2022-08-19T20:12:26.681Z,5.80
2022-08-19T20:14:53.291Z,5.90
2022-08-19T20:17:20.453Z,6.13
2022-08-19T20:19:47.662Z,5.80
2022-08-19T20:22:15.414Z,5.77
2022-08-19T20:24:42.447Z,6.00
2022-08-19T20:27:10.788Z,5.13
2022-08-19T20:29:40.443Z,6.07
2022-08-19T20:32:12.624Z,5.50
2022-08-19T20:34:40.483Z,5.33
2022-08-19T20:37:10.713Z,5.87
2022-08-19T20:39:38.186Z,4.63
2022-08-19T20:42:05.671Z,5.67
2022-08-19T20:44:32.504Z,5.00
2022-08-19T20:47:03.606Z,5.17
2022-08-19T20:49:31.217Z,5.43
2022-08-19T20:51:58.273Z,5.00
2022-08-19T20:54:25.788Z,5.00
2022-08-19T20:56:52.952Z,4.47
2022-08-19T20:59:20.517Z,5.00
2022-08-19T21:01:48.235Z,5.70
2022-08-19T21:04:14.920Z,4.90
2022-08-19T21:06:43.931Z,4.97
2022-08-19T21:09:12.788Z,4.77
2022-08-19T21:11:39.552Z,4.50
2022-08-19T21:14:07.180Z,4.67
2022-08-19T21:16:33.893Z,4.60
2022-08-19T21:19:00.964Z,4.50
2022-08-19T21:21:28.111Z,4.37
2022-08-19T21:23:54.784Z,4.97
2022-08-19T21:26:21.948Z,3.87
2022-08-19T21:28:48.538Z,4.17
2022-08-19T21:31:17.720Z,4.10
2022-08-19T21:33:44.488Z,4.40
2022-08-19T21:36:11.184Z,4.33
2022-08-19T21:38:38.054Z,4.07
2022-08-19T21:41:06.496Z,5.23
2022-08-19T21:43:34.869Z,4.10
2022-08-19T21:46:01.757Z,4.67
2022-08-19T21:48:28.397Z,4.67
2022-08-19T21:50:55.097Z,4.17
2022-08-19T21:53:22.956Z,4.73
2022-08-19T21:55:53.430Z,5.20
2022-08-19T21:58:28.770Z,4.73
2022-08-19T22:00:58.574Z,4.10
2022-08-19T22:03:25.717Z,4.03
2022-08-19T22:05:52.576Z,5.23
2022-08-19T22:08:19.451Z,5.27
2022-08-19T22:10:46.668Z,4.50
2022-08-19T22:13:14.450Z,5.53
2022-08-19T22:15:42.281Z,4.53
2022-08-19T22:18:08.859Z,3.63
2022-08-19T22:20:35.747Z,5.47
2022-08-19T22:23:06.085Z,3.70
2022-08-19T22:25:39.510Z,3.67
2022-08-19T22:28:10.855Z,4.37
2022-08-19T22:30:39.826Z,4.70
2022-08-19T22:33:12.301Z,4.80
2022-08-19T22:35:40.727Z,4.03
2022-08-19T22:38:08.392Z,4.63
2022-08-19T22:40:39.463Z,3.87
2022-08-19T22:43:11.953Z,5.00
2022-08-19T22:45:38.703Z,4.80
2022-08-19T22:48:07.836Z,4.20
2022-08-19T22:50:35.830Z,5.43
2022-08-19T22:53:03.412Z,4.80
2022-08-19T22:55:30.989Z,3.47
2022-08-19T22:57:58.849Z,3.90
2022-08-19T23:00:27.816Z,4.20
2022-08-19T23:02:56.137Z,3.90
2022-08-19T23:05:26.044Z,5.80
2022-08-19T23:07:54.156Z,5.23
2022-08-19T23:10:26.759Z,4.23
2022-08-19T23:12:56.212Z,5.10
2022-08-19T23:15:25.786Z,3.93
2022-08-19T23:17:54.320Z,6.90
2022-08-19T23:20:26.951Z,5.30
2022-08-19T23:22:55.062Z,4.90
2022-08-19T23:25:25.608Z,3.60
2022-08-19T23:28:10.780Z,6.40
2022-08-19T23:30:41.293Z,6.40
2022-08-19T23:33:16.041Z,4.03
2022-08-19T23:35:43.044Z,4.80
2022-08-19T23:38:10.174Z,5.20
2022-08-19T23:40:38.720Z,5.47
2022-08-19T23:43:09.600Z,4.17
2022-08-19T23:45:40.580Z,7.60
2022-08-19T23:48:09.944Z,4.40
2022-08-19T23:50:40.464Z,6.73
2022-08-19T23:53:09.410Z,5.90
2022-08-19T23:55:43.080Z,5.67
2022-08-19T23:58:10.806Z,6.23
